sensor_id;sensor_type;location;lat;lon;timestamp;P1;durP1;ratioP1;P2;durP2;ratioP2
22388;SDS011;11362;48.102;11.620;2022-07-29T00:00:54;1.70;;;1.70;;
22388;SDS011;11362;48.102;11.620;2022-07-29T00:03:19;2.00;;;1.90;;
22388;SDS011;11362;48.102;11.620;2022-07-29T00:05:44;1.60;;;1.50;;
22388;SDS011;11362;48.102;11.620;2022-07-29T00:08:10;2.07;;;1.97;;
22388;SDS011;11362;48.102;11.620;2022-07-29T00:10:35;1.97;;;1.67;;
22388;SDS011;11362;48.102;11.620;2022-07-29T00:13:00;1.83;;;1.73;;
22388;SDS011;11362;48.102;11.620;2022-07-29T00:15:26;1.53;;;1.43;;
22388;SDS011;11362;48.102;11.620;2022-07-29T00:17:52;1.33;;;1.30;;
22388;SDS011;11362;48.102;11.620;2022-07-29T00:20:17;1.47;;;1.40;;
22388;SDS011;11362;48.102;11.620;2022-07-29T00:22:42;1.10;;;1.10;;
22388;SDS011;11362;48.102;11.620;2022-07-29T00:25:08;1.47;;;1.47;;
22388;SDS011;11362;48.102;11.620;2022-07-29T00:27:36;1.33;;;1.33;;
22388;SDS011;11362;48.102;11.620;2022-07-29T00:30:03;1.63;;;1.53;;
22388;SDS011;11362;48.102;11.620;2022-07-29T00:32:29;1.47;;;1.37;;
22388;SDS011;11362;48.102;11.620;2022-07-29T00:34:54;1.80;;;1.70;;
22388;SDS011;11362;48.102;11.620;2022-07-29T00:37:19;1.47;;;1.47;;
22388;SDS011;11362;48.102;11.620;2022-07-29T00:39:45;1.23;;;1.23;;
22388;SDS011;11362;48.102;11.620;2022-07-29T00:42:10;1.50;;;1.40;;
22388;SDS011;11362;48.102;11.620;2022-07-29T00:44:36;1.47;;;1.47;;
22388;SDS011;11362;48.102;11.620;2022-07-29T00:47:03;1.43;;;1.30;;
22388;SDS011;11362;48.102;11.620;2022-07-29T00:49:28;1.63;;;1.53;;
22388;SDS011;11362;48.102;11.620;2022-07-29T00:51:53;1.50;;;1.50;;
22388;SDS011;11362;48.102;11.620;2022-07-29T00:54:19;1.20;;;1.20;;
22388;SDS011;11362;48.102;11.620;2022-07-29T00:56:44;1.53;;;1.43;;
22388;SDS011;11362;48.102;11.620;2022-07-29T00:59:10;1.40;;;1.30;;
22388;SDS011;11362;48.102;11.620;2022-07-29T01:01:35;1.30;;;1.30;;
22388;SDS011;11362;48.102;11.620;2022-07-29T01:04:00;1.63;;;1.53;;
22388;SDS011;11362;48.102;11.620;2022-07-29T01:06:26;1.37;;;1.27;;
22388;SDS011;11362;48.102;11.620;2022-07-29T01:08:51;1.60;;;1.60;;
22388;SDS011;11362;48.102;11.620;2022-07-29T01:11:17;1.20;;;1.20;;
22388;SDS011;11362;48.102;11.620;2022-07-29T01:13:46;1.40;;;1.30;;
22388;SDS011;11362;48.102;11.620;2022-07-29T01:16:18;1.23;;;1.17;;
22388;SDS011;11362;48.102;11.620;2022-07-29T01:18:51;1.60;;;1.50;;
22388;SDS011;11362;48.102;11.620;2022-07-29T01:23:59;1.10;;;1.10;;
22388;SDS011;11362;48.102;11.620;2022-07-29T01:27:04;1.37;;;1.37;;
22388;SDS011;11362;48.102;11.620;2022-07-29T01:29:54;1.10;;;1.10;;
22388;SDS011;11362;48.102;11.620;2022-07-29T01:32:22;0.93;;;0.93;;
22388;SDS011;11362;48.102;11.620;2022-07-29T01:37:51;1.00;;;1.00;;
22388;SDS011;11362;48.102;11.620;2022-07-29T01:40:19;1.30;;;1.30;;
22388;SDS011;11362;48.102;11.620;2022-07-29T01:42:57;1.43;;;1.30;;
22388;SDS011;11362;48.102;11.620;2022-07-29T01:50:43;1.13;;;1.13;;
22388;SDS011;11362;48.102;11.620;2022-07-29T01:53:12;0.90;;;0.90;;
22388;SDS011;11362;48.102;11.620;2022-07-29T01:55:40;1.03;;;1.03;;
22388;SDS011;11362;48.102;11.620;2022-07-29T01:58:09;1.20;;;1.20;;
22388;SDS011;11362;48.102;11.620;2022-07-29T02:00:37;1.67;;;1.20;;
22388;SDS011;11362;48.102;11.620;2022-07-29T02:03:05;1.40;;;1.30;;
22388;SDS011;11362;48.102;11.620;2022-07-29T02:05:34;1.17;;;1.17;;
22388;SDS011;11362;48.102;11.620;2022-07-29T02:08:02;1.00;;;1.00;;
22388;SDS011;11362;48.102;11.620;2022-07-29T02:10:30;1.23;;;1.23;;
22388;SDS011;11362;48.102;11.620;2022-07-29T02:12:57;1.20;;;1.20;;
22388;SDS011;11362;48.102;11.620;2022-07-29T02:15:24;1.40;;;1.30;;
22388;SDS011;11362;48.102;11.620;2022-07-29T02:17:56;1.30;;;1.30;;
22388;SDS011;11362;48.102;11.620;2022-07-29T02:20:26;1.23;;;1.23;;
22388;SDS011;11362;48.102;11.620;2022-07-29T02:22:53;1.10;;;1.10;;
22388;SDS011;11362;48.102;11.620;2022-07-29T02:25:20;1.00;;;1.00;;
22388;SDS011;11362;48.102;11.620;2022-07-29T02:27:48;1.17;;;1.17;;
22388;SDS011;11362;48.102;11.620;2022-07-29T02:30:15;1.30;;;1.30;;
22388;SDS011;11362;48.102;11.620;2022-07-29T02:32:42;1.33;;;1.33;;
22388;SDS011;11362;48.102;11.620;2022-07-29T02:35:09;1.10;;;1.10;;
22388;SDS011;11362;48.102;11.620;2022-07-29T02:37:39;1.10;;;1.10;;
22388;SDS011;11362;48.102;11.620;2022-07-29T02:40:05;1.30;;;1.20;;
22388;SDS011;11362;48.102;11.620;2022-07-29T02:42:34;0.83;;;0.83;;
22388;SDS011;11362;48.102;11.620;2022-07-29T02:45:02;1.50;;;1.40;;
22388;SDS011;11362;48.102;11.620;2022-07-29T02:50:27;1.00;;;1.00;;
22388;SDS011;11362;48.102;11.620;2022-07-29T02:52:57;0.80;;;0.80;;
22388;SDS011;11362;48.102;11.620;2022-07-29T02:55:29;0.90;;;0.90;;
22388;SDS011;11362;48.102;11.620;2022-07-29T02:58:02;0.87;;;0.87;;
22388;SDS011;11362;48.102;11.620;2022-07-29T03:00:36;0.90;;;0.90;;
22388;SDS011;11362;48.102;11.620;2022-07-29T03:03:04;1.03;;;1.03;;
22388;SDS011;11362;48.102;11.620;2022-07-29T03:05:33;0.90;;;0.90;;
22388;SDS011;11362;48.102;11.620;2022-07-29T03:08:00;1.13;;;1.13;;
22388;SDS011;11362;48.102;11.620;2022-07-29T03:10:27;0.80;;;0.80;;
22388;SDS011;11362;48.102;11.620;2022-07-29T03:12:54;1.20;;;1.10;;
22388;SDS011;11362;48.102;11.620;2022-07-29T03:15:20;1.10;;;1.10;;
22388;SDS011;11362;48.102;11.620;2022-07-29T03:17:46;1.07;;;1.07;;
22388;SDS011;11362;48.102;11.620;2022-07-29T03:20:12;0.90;;;0.90;;
22388;SDS011;11362;48.102;11.620;2022-07-29T03:22:41;0.90;;;0.90;;
22388;SDS011;11362;48.102;11.620;2022-07-29T03:25:08;1.23;;;1.23;;
22388;SDS011;11362;48.102;11.620;2022-07-29T03:27:37;0.83;;;0.83;;
22388;SDS011;11362;48.102;11.620;2022-07-29T03:30:03;1.97;;;1.20;;
22388;SDS011;11362;48.102;11.620;2022-07-29T03:32:29;0.90;;;0.90;;
22388;SDS011;11362;48.102;11.620;2022-07-29T03:34:54;1.13;;;1.13;;
22388;SDS011;11362;48.102;11.620;2022-07-29T03:37:19;0.90;;;0.90;;
22388;SDS011;11362;48.102;11.620;2022-07-29T03:39:45;1.13;;;1.13;;
22388;SDS011;11362;48.102;11.620;2022-07-29T03:42:11;1.00;;;1.00;;
22388;SDS011;11362;48.102;11.620;2022-07-29T03:44:41;1.10;;;0.90;;
22388;SDS011;11362;48.102;11.620;2022-07-29T03:47:08;1.07;;;1.07;;
22388;SDS011;11362;48.102;11.620;2022-07-29T03:49:35;1.17;;;1.17;;
22388;SDS011;11362;48.102;11.620;2022-07-29T03:52:02;1.20;;;1.20;;
22388;SDS011;11362;48.102;11.620;2022-07-29T03:54:28;0.87;;;0.87;;
22388;SDS011;11362;48.102;11.620;2022-07-29T03:56:54;1.00;;;1.00;;
22388;SDS011;11362;48.102;11.620;2022-07-29T03:59:23;0.90;;;0.90;;
22388;SDS011;11362;48.102;11.620;2022-07-29T04:01:48;0.90;;;0.90;;
22388;SDS011;11362;48.102;11.620;2022-07-29T04:04:15;1.00;;;1.00;;
22388;SDS011;11362;48.102;11.620;2022-07-29T04:06:41;1.00;;;1.00;;
22388;SDS011;11362;48.102;11.620;2022-07-29T04:09:07;0.90;;;0.90;;
22388;SDS011;11362;48.102;11.620;2022-07-29T04:11:33;0.87;;;0.87;;
22388;SDS011;11362;48.102;11.620;2022-07-29T04:13:59;0.90;;;0.90;;
22388;SDS011;11362;48.102;11.620;2022-07-29T04:16:24;0.80;;;0.80;;
22388;SDS011;11362;48.102;11.620;2022-07-29T04:18:50;1.53;;;0.80;;
22388;SDS011;11362;48.102;11.620;2022-07-29T04:21:15;1.00;;;0.90;;
22388;SDS011;11362;48.102;11.620;2022-07-29T04:23:40;0.97;;;0.97;;
22388;SDS011;11362;48.102;11.620;2022-07-29T04:26:06;0.97;;;0.97;;
22388;SDS011;11362;48.102;11.620;2022-07-29T04:28:31;0.90;;;0.90;;
22388;SDS011;11362;48.102;11.620;2022-07-29T04:30:56;0.83;;;0.83;;
22388;SDS011;11362;48.102;11.620;2022-07-29T04:33:22;0.80;;;0.80;;
22388;SDS011;11362;48.102;11.620;2022-07-29T04:35:47;1.00;;;1.00;;
22388;SDS011;11362;48.102;11.620;2022-07-29T04:38:12;0.80;;;0.80;;
22388;SDS011;11362;48.102;11.620;2022-07-29T04:40:37;0.80;;;0.80;;
22388;SDS011;11362;48.102;11.620;2022-07-29T04:43:03;1.50;;;1.00;;
22388;SDS011;11362;48.102;11.620;2022-07-29T04:45:28;0.90;;;0.90;;
22388;SDS011;11362;48.102;11.620;2022-07-29T04:47:54;0.80;;;0.80;;
22388;SDS011;11362;48.102;11.620;2022-07-29T04:50:19;0.97;;;0.97;;
22388;SDS011;11362;48.102;11.620;2022-07-29T04:52:45;1.33;;;1.23;;
22388;SDS011;11362;48.102;11.620;2022-07-29T04:55:10;0.80;;;0.80;;
22388;SDS011;11362;48.102;11.620;2022-07-29T04:57:35;1.57;;;0.80;;
22388;SDS011;11362;48.102;11.620;2022-07-29T05:00:01;0.77;;;0.77;;
22388;SDS011;11362;48.102;11.620;2022-07-29T05:02:27;0.97;;;0.97;;
22388;SDS011;11362;48.102;11.620;2022-07-29T05:04:52;0.80;;;0.80;;
22388;SDS011;11362;48.102;11.620;2022-07-29T05:07:18;0.87;;;0.87;;
22388;SDS011;11362;48.102;11.620;2022-07-29T05:09:43;0.93;;;0.93;;
22388;SDS011;11362;48.102;11.620;2022-07-29T05:12:08;0.90;;;0.90;;
22388;SDS011;11362;48.102;11.620;2022-07-29T05:14:34;0.80;;;0.80;;
22388;SDS011;11362;48.102;11.620;2022-07-29T05:16:59;5.17;;;1.40;;
22388;SDS011;11362;48.102;11.620;2022-07-29T05:19:24;9.43;;;1.40;;
22388;SDS011;11362;48.102;11.620;2022-07-29T05:21:50;6.77;;;1.30;;
22388;SDS011;11362;48.102;11.620;2022-07-29T05:24:15;4.07;;;1.30;;
22388;SDS011;11362;48.102;11.620;2022-07-29T05:26:41;3.10;;;1.40;;
22388;SDS011;11362;48.102;11.620;2022-07-29T05:29:06;6.40;;;2.27;;
22388;SDS011;11362;48.102;11.620;2022-07-29T05:31:32;11.03;;;2.00;;
22388;SDS011;11362;48.102;11.620;2022-07-29T05:33:57;9.33;;;1.80;;
22388;SDS011;11362;48.102;11.620;2022-07-29T05:36:22;6.77;;;1.80;;
22388;SDS011;11362;48.102;11.620;2022-07-29T05:38:48;11.00;;;2.30;;
22388;SDS011;11362;48.102;11.620;2022-07-29T05:41:13;11.47;;;2.33;;
22388;SDS011;11362;48.102;11.620;2022-07-29T05:43:38;10.87;;;2.00;;
22388;SDS011;11362;48.102;11.620;2022-07-29T05:46:03;9.30;;;1.93;;
22388;SDS011;11362;48.102;11.620;2022-07-29T05:48:29;12.33;;;1.90;;
22388;SDS011;11362;48.102;11.620;2022-07-29T05:50:54;7.77;;;1.57;;
22388;SDS011;11362;48.102;11.620;2022-07-29T05:53:19;10.17;;;1.87;;
22388;SDS011;11362;48.102;11.620;2022-07-29T05:55:45;4.60;;;1.50;;
22388;SDS011;11362;48.102;11.620;2022-07-29T05:58:10;1.67;;;1.10;;
22388;SDS011;11362;48.102;11.620;2022-07-29T06:00:35;2.67;;;1.57;;
22388;SDS011;11362;48.102;11.620;2022-07-29T06:03:00;8.57;;;1.63;;
22388;SDS011;11362;48.102;11.620;2022-07-29T06:05:26;3.30;;;1.30;;
22388;SDS011;11362;48.102;11.620;2022-07-29T06:07:51;5.30;;;1.50;;
22388;SDS011;11362;48.102;11.620;2022-07-29T06:10:16;1.33;;;1.17;;
22388;SDS011;11362;48.102;11.620;2022-07-29T06:12:42;5.70;;;1.50;;
22388;SDS011;11362;48.102;11.620;2022-07-29T06:15:07;4.13;;;1.40;;
22388;SDS011;11362;48.102;11.620;2022-07-29T06:17:33;5.00;;;1.40;;
22388;SDS011;11362;48.102;11.620;2022-07-29T06:19:58;2.83;;;1.10;;
22388;SDS011;11362;48.102;11.620;2022-07-29T06:22:23;2.40;;;1.13;;
22388;SDS011;11362;48.102;11.620;2022-07-29T06:24:49;1.77;;;1.10;;
22388;SDS011;11362;48.102;11.620;2022-07-29T06:27:15;1.47;;;1.20;;
22388;SDS011;11362;48.102;11.620;2022-07-29T06:29:40;1.13;;;1.00;;
22388;SDS011;11362;48.102;11.620;2022-07-29T06:32:05;1.67;;;1.10;;
22388;SDS011;11362;48.102;11.620;2022-07-29T06:34:31;0.93;;;0.93;;
22388;SDS011;11362;48.102;11.620;2022-07-29T06:36:56;1.80;;;0.90;;
22388;SDS011;11362;48.102;11.620;2022-07-29T06:39:21;1.50;;;0.93;;
22388;SDS011;11362;48.102;11.620;2022-07-29T06:41:47;1.10;;;1.10;;
22388;SDS011;11362;48.102;11.620;2022-07-29T06:44:13;1.00;;;1.00;;
22388;SDS011;11362;48.102;11.620;2022-07-29T06:46:38;2.40;;;0.93;;
22388;SDS011;11362;48.102;11.620;2022-07-29T06:49:03;1.23;;;1.03;;
22388;SDS011;11362;48.102;11.620;2022-07-29T06:51:29;2.40;;;1.10;;
22388;SDS011;11362;48.102;11.620;2022-07-29T06:53:54;1.27;;;1.07;;
22388;SDS011;11362;48.102;11.620;2022-07-29T06:56:20;1.73;;;1.43;;
22388;SDS011;11362;48.102;11.620;2022-07-29T06:58:45;3.23;;;1.10;;
22388;SDS011;11362;48.102;11.620;2022-07-29T07:01:10;3.23;;;1.20;;
22388;SDS011;11362;48.102;11.620;2022-07-29T07:03:36;1.43;;;1.33;;
22388;SDS011;11362;48.102;11.620;2022-07-29T07:06:01;7.40;;;1.20;;
22388;SDS011;11362;48.102;11.620;2022-07-29T07:08:27;1.47;;;1.20;;
22388;SDS011;11362;48.102;11.620;2022-07-29T07:10:52;1.20;;;1.20;;
22388;SDS011;11362;48.102;11.620;2022-07-29T07:13:18;1.90;;;1.20;;
22388;SDS011;11362;48.102;11.620;2022-07-29T07:15:44;1.20;;;1.10;;
22388;SDS011;11362;48.102;11.620;2022-07-29T07:18:10;2.50;;;1.23;;
22388;SDS011;11362;48.102;11.620;2022-07-29T07:20:35;1.00;;;1.00;;
22388;SDS011;11362;48.102;11.620;2022-07-29T07:23:01;1.00;;;1.00;;
22388;SDS011;11362;48.102;11.620;2022-07-29T07:25:26;1.03;;;1.03;;
22388;SDS011;11362;48.102;11.620;2022-07-29T07:27:52;3.27;;;0.93;;
22388;SDS011;11362;48.102;11.620;2022-07-29T07:30:17;1.70;;;1.00;;
22388;SDS011;11362;48.102;11.620;2022-07-29T07:32:42;1.10;;;1.10;;
22388;SDS011;11362;48.102;11.620;2022-07-29T07:35:08;1.00;;;1.00;;
22388;SDS011;11362;48.102;11.620;2022-07-29T07:37:34;1.13;;;1.13;;
22388;SDS011;11362;48.102;11.620;2022-07-29T07:40:00;2.00;;;1.03;;
22388;SDS011;11362;48.102;11.620;2022-07-29T07:42:25;0.87;;;0.87;;
22388;SDS011;11362;48.102;11.620;2022-07-29T07:44:51;1.40;;;1.30;;
22388;SDS011;11362;48.102;11.620;2022-07-29T07:47:16;1.00;;;1.00;;
22388;SDS011;11362;48.102;11.620;2022-07-29T07:49:42;1.10;;;1.10;;
22388;SDS011;11362;48.102;11.620;2022-07-29T07:52:07;1.17;;;1.17;;
22388;SDS011;11362;48.102;11.620;2022-07-29T07:54:32;1.27;;;1.17;;
22388;SDS011;11362;48.102;11.620;2022-07-29T07:56:58;1.00;;;1.00;;
22388;SDS011;11362;48.102;11.620;2022-07-29T07:59:23;1.47;;;1.20;;
22388;SDS011;11362;48.102;11.620;2022-07-29T08:01:49;2.67;;;1.10;;
22388;SDS011;11362;48.102;11.620;2022-07-29T08:04:14;1.40;;;1.30;;
22388;SDS011;11362;48.102;11.620;2022-07-29T08:06:40;1.10;;;1.10;;
22388;SDS011;11362;48.102;11.620;2022-07-29T08:09:05;1.87;;;1.17;;
22388;SDS011;11362;48.102;11.620;2022-07-29T08:11:31;1.07;;;1.07;;
22388;SDS011;11362;48.102;11.620;2022-07-29T08:13:56;0.97;;;0.97;;
22388;SDS011;11362;48.102;11.620;2022-07-29T08:16:22;1.43;;;0.93;;
22388;SDS011;11362;48.102;11.620;2022-07-29T08:18:48;6.67;;;1.33;;
22388;SDS011;11362;48.102;11.620;2022-07-29T08:21:13;2.33;;;1.30;;
22388;SDS011;11362;48.102;11.620;2022-07-29T08:23:39;1.40;;;1.07;;
22388;SDS011;11362;48.102;11.620;2022-07-29T08:26:05;2.53;;;1.00;;
22388;SDS011;11362;48.102;11.620;2022-07-29T08:28:31;1.60;;;1.10;;
22388;SDS011;11362;48.102;11.620;2022-07-29T08:30:56;1.40;;;1.30;;
22388;SDS011;11362;48.102;11.620;2022-07-29T08:33:22;1.60;;;0.90;;
22388;SDS011;11362;48.102;11.620;2022-07-29T08:35:47;1.00;;;1.00;;
22388;SDS011;11362;48.102;11.620;2022-07-29T08:38:12;1.27;;;1.17;;
22388;SDS011;11362;48.102;11.620;2022-07-29T08:40:38;1.43;;;0.90;;
22388;SDS011;11362;48.102;11.620;2022-07-29T08:43:05;2.30;;;1.53;;
22388;SDS011;11362;48.102;11.620;2022-07-29T08:45:41;1.97;;;1.33;;
22388;SDS011;11362;48.102;11.620;2022-07-29T08:48:12;3.80;;;1.37;;
22388;SDS011;11362;48.102;11.620;2022-07-29T08:50:38;4.37;;;1.70;;
22388;SDS011;11362;48.102;11.620;2022-07-29T08:53:04;4.10;;;1.10;;
22388;SDS011;11362;48.102;11.620;2022-07-29T08:55:32;2.60;;;1.57;;
22388;SDS011;11362;48.102;11.620;2022-07-29T08:57:58;2.40;;;1.40;;
22388;SDS011;11362;48.102;11.620;2022-07-29T09:00:24;1.50;;;1.40;;
22388;SDS011;11362;48.102;11.620;2022-07-29T09:02:51;2.77;;;1.60;;
22388;SDS011;11362;48.102;11.620;2022-07-29T09:05:22;1.20;;;1.10;;
22388;SDS011;11362;48.102;11.620;2022-07-29T09:07:49;2.70;;;1.43;;
22388;SDS011;11362;48.102;11.620;2022-07-29T09:10:15;1.30;;;1.30;;
22388;SDS011;11362;48.102;11.620;2022-07-29T09:12:40;1.50;;;1.40;;
22388;SDS011;11362;48.102;11.620;2022-07-29T09:15:06;1.87;;;1.37;;
22388;SDS011;11362;48.102;11.620;2022-07-29T09:17:44;2.17;;;1.53;;
22388;SDS011;11362;48.102;11.620;2022-07-29T09:20:12;3.03;;;1.80;;
22388;SDS011;11362;48.102;11.620;2022-07-29T09:22:39;3.07;;;1.40;;
22388;SDS011;11362;48.102;11.620;2022-07-29T09:25:05;1.70;;;1.60;;
22388;SDS011;11362;48.102;11.620;2022-07-29T09:27:31;3.17;;;1.60;;
22388;SDS011;11362;48.102;11.620;2022-07-29T09:32:55;1.60;;;1.33;;
22388;SDS011;11362;48.102;11.620;2022-07-29T09:35:24;1.57;;;1.33;;
22388;SDS011;11362;48.102;11.620;2022-07-29T09:37:51;1.67;;;1.50;;
22388;SDS011;11362;48.102;11.620;2022-07-29T09:40:17;1.70;;;1.60;;
22388;SDS011;11362;48.102;11.620;2022-07-29T09:42:48;1.67;;;1.57;;
22388;SDS011;11362;48.102;11.620;2022-07-29T09:45:27;3.80;;;2.00;;
22388;SDS011;11362;48.102;11.620;2022-07-29T09:47:56;2.97;;;1.70;;
22388;SDS011;11362;48.102;11.620;2022-07-29T09:50:22;4.30;;;2.10;;
22388;SDS011;11362;48.102;11.620;2022-07-29T09:52:59;3.47;;;2.20;;
22388;SDS011;11362;48.102;11.620;2022-07-29T09:55:24;6.07;;;1.80;;
22388;SDS011;11362;48.102;11.620;2022-07-29T09:57:49;3.47;;;2.10;;
22388;SDS011;11362;48.102;11.620;2022-07-29T10:00:16;3.03;;;2.10;;
22388;SDS011;11362;48.102;11.620;2022-07-29T10:02:44;4.10;;;1.90;;
22388;SDS011;11362;48.102;11.620;2022-07-29T10:05:24;2.53;;;1.60;;
22388;SDS011;11362;48.102;11.620;2022-07-29T10:07:54;3.43;;;1.70;;
22388;SDS011;11362;48.102;11.620;2022-07-29T10:10:25;2.17;;;2.00;;
22388;SDS011;11362;48.102;11.620;2022-07-29T10:12:57;4.47;;;2.20;;
22388;SDS011;11362;48.102;11.620;2022-07-29T10:15:24;2.13;;;1.73;;
22388;SDS011;11362;48.102;11.620;2022-07-29T10:17:53;2.00;;;1.70;;
22388;SDS011;11362;48.102;11.620;2022-07-29T10:20:20;8.37;;;5.83;;
22388;SDS011;11362;48.102;11.620;2022-07-29T10:22:47;6.00;;;3.10;;
22388;SDS011;11362;48.102;11.620;2022-07-29T10:25:14;3.37;;;2.57;;
22388;SDS011;11362;48.102;11.620;2022-07-29T10:27:40;2.63;;;2.23;;
22388;SDS011;11362;48.102;11.620;2022-07-29T10:30:06;2.07;;;1.97;;
22388;SDS011;11362;48.102;11.620;2022-07-29T10:43:53;1.80;;;1.70;;
22388;SDS011;11362;48.102;11.620;2022-07-29T10:46:34;2.50;;;1.80;;
22388;SDS011;11362;48.102;11.620;2022-07-29T10:49:04;3.17;;;1.77;;
22388;SDS011;11362;48.102;11.620;2022-07-29T10:52:24;1.83;;;1.73;;
22388;SDS011;11362;48.102;11.620;2022-07-29T10:54:47;1.60;;;1.60;;
22388;SDS011;11362;48.102;11.620;2022-07-29T10:57:27;4.43;;;1.90;;
22388;SDS011;11362;48.102;11.620;2022-07-29T11:07:37;2.63;;;1.90;;
22388;SDS011;11362;48.102;11.620;2022-07-29T11:15:07;2.43;;;1.90;;
22388;SDS011;11362;48.102;11.620;2022-07-29T11:20:36;2.30;;;2.10;;
22388;SDS011;11362;48.102;11.620;2022-07-29T11:25:43;2.60;;;2.17;;
22388;SDS011;11362;48.102;11.620;2022-07-29T11:28:10;2.80;;;2.23;;
22388;SDS011;11362;48.102;11.620;2022-07-29T11:30:47;1.70;;;1.60;;
22388;SDS011;11362;48.102;11.620;2022-07-29T11:33:29;3.73;;;2.00;;
22388;SDS011;11362;48.102;11.620;2022-07-29T11:36:07;3.40;;;2.03;;
22388;SDS011;11362;48.102;11.620;2022-07-29T11:38:33;2.00;;;1.90;;
22388;SDS011;11362;48.102;11.620;2022-07-29T11:43:45;3.00;;;1.83;;
22388;SDS011;11362;48.102;11.620;2022-07-29T11:46:12;1.23;;;1.23;;
22388;SDS011;11362;48.102;11.620;2022-07-29T11:48:40;2.00;;;1.70;;
22388;SDS011;11362;48.102;11.620;2022-07-29T11:51:10;3.23;;;1.63;;
22388;SDS011;11362;48.102;11.620;2022-07-29T11:53:36;3.60;;;1.70;;
22388;SDS011;11362;48.102;11.620;2022-07-29T11:56:03;4.60;;;1.80;;
22388;SDS011;11362;48.102;11.620;2022-07-29T11:58:32;3.23;;;1.70;;
22388;SDS011;11362;48.102;11.620;2022-07-29T12:00:59;3.17;;;1.80;;
22388;SDS011;11362;48.102;11.620;2022-07-29T12:03:26;6.20;;;1.73;;
22388;SDS011;11362;48.102;11.620;2022-07-29T12:05:53;1.90;;;1.60;;
22388;SDS011;11362;48.102;11.620;2022-07-29T12:08:20;1.97;;;1.73;;
22388;SDS011;11362;48.102;11.620;2022-07-29T12:10:48;2.17;;;1.90;;
22388;SDS011;11362;48.102;11.620;2022-07-29T12:13:15;2.97;;;1.87;;
22388;SDS011;11362;48.102;11.620;2022-07-29T12:15:42;3.77;;;1.73;;
22388;SDS011;11362;48.102;11.620;2022-07-29T12:18:19;3.27;;;2.10;;
22388;SDS011;11362;48.102;11.620;2022-07-29T12:20:46;3.57;;;1.83;;
22388;SDS011;11362;48.102;11.620;2022-07-29T12:23:12;2.10;;;1.90;;
22388;SDS011;11362;48.102;11.620;2022-07-29T12:25:39;2.83;;;1.70;;
22388;SDS011;11362;48.102;11.620;2022-07-29T12:28:07;3.30;;;1.73;;
22388;SDS011;11362;48.102;11.620;2022-07-29T12:30:44;1.80;;;1.70;;
22388;SDS011;11362;48.102;11.620;2022-07-29T12:35:38;3.00;;;1.90;;
22388;SDS011;11362;48.102;11.620;2022-07-29T12:38:04;1.67;;;1.63;;
22388;SDS011;11362;48.102;11.620;2022-07-29T12:40:30;3.10;;;1.67;;
22388;SDS011;11362;48.102;11.620;2022-07-29T12:43:05;3.97;;;1.90;;
22388;SDS011;11362;48.102;11.620;2022-07-29T12:45:30;1.80;;;1.60;;
22388;SDS011;11362;48.102;11.620;2022-07-29T12:47:56;2.67;;;1.90;;
22388;SDS011;11362;48.102;11.620;2022-07-29T12:50:22;1.70;;;1.60;;
22388;SDS011;11362;48.102;11.620;2022-07-29T12:52:47;1.83;;;1.30;;
22388;SDS011;11362;48.102;11.620;2022-07-29T12:55:13;1.80;;;1.70;;
22388;SDS011;11362;48.102;11.620;2022-07-29T12:57:49;4.97;;;1.93;;
22388;SDS011;11362;48.102;11.620;2022-07-29T13:00:16;2.77;;;1.93;;
22388;SDS011;11362;48.102;11.620;2022-07-29T13:02:42;4.60;;;1.77;;
22388;SDS011;11362;48.102;11.620;2022-07-29T13:05:08;3.20;;;2.03;;
22388;SDS011;11362;48.102;11.620;2022-07-29T13:07:35;7.07;;;2.00;;
22388;SDS011;11362;48.102;11.620;2022-07-29T13:12:39;2.40;;;2.10;;
22388;SDS011;11362;48.102;11.620;2022-07-29T13:15:16;4.27;;;1.80;;
22388;SDS011;11362;48.102;11.620;2022-07-29T13:17:42;2.13;;;1.90;;
22388;SDS011;11362;48.102;11.620;2022-07-29T13:20:08;1.80;;;1.70;;
22388;SDS011;11362;48.102;11.620;2022-07-29T13:22:35;1.97;;;1.87;;
22388;SDS011;11362;48.102;11.620;2022-07-29T13:25:01;2.27;;;1.63;;
22388;SDS011;11362;48.102;11.620;2022-07-29T13:27:28;5.37;;;1.87;;
22388;SDS011;11362;48.102;11.620;2022-07-29T13:29:55;4.87;;;2.20;;
22388;SDS011;11362;48.102;11.620;2022-07-29T13:32:22;2.43;;;1.73;;
22388;SDS011;11362;48.102;11.620;2022-07-29T13:34:47;3.23;;;1.93;;
22388;SDS011;11362;48.102;11.620;2022-07-29T13:37:13;3.83;;;2.10;;
22388;SDS011;11362;48.102;11.620;2022-07-29T13:39:39;1.90;;;1.80;;
22388;SDS011;11362;48.102;11.620;2022-07-29T13:42:04;2.07;;;1.87;;
22388;SDS011;11362;48.102;11.620;2022-07-29T13:44:31;4.77;;;2.27;;
22388;SDS011;11362;48.102;11.620;2022-07-29T13:46:56;2.80;;;1.77;;
22388;SDS011;11362;48.102;11.620;2022-07-29T13:49:21;2.63;;;1.80;;
22388;SDS011;11362;48.102;11.620;2022-07-29T13:51:47;6.83;;;1.77;;
22388;SDS011;11362;48.102;11.620;2022-07-29T13:54:12;2.53;;;2.00;;
22388;SDS011;11362;48.102;11.620;2022-07-29T13:56:37;7.87;;;2.30;;
22388;SDS011;11362;48.102;11.620;2022-07-29T13:59:02;13.37;;;2.13;;
22388;SDS011;11362;48.102;11.620;2022-07-29T14:01:28;4.17;;;2.30;;
22388;SDS011;11362;48.102;11.620;2022-07-29T14:03:53;5.00;;;2.13;;
22388;SDS011;11362;48.102;11.620;2022-07-29T14:06:18;3.63;;;2.47;;
22388;SDS011;11362;48.102;11.620;2022-07-29T14:08:44;4.67;;;2.07;;
22388;SDS011;11362;48.102;11.620;2022-07-29T14:11:09;4.93;;;2.23;;
22388;SDS011;11362;48.102;11.620;2022-07-29T14:13:34;4.40;;;2.30;;
22388;SDS011;11362;48.102;11.620;2022-07-29T14:16:00;3.80;;;2.73;;
22388;SDS011;11362;48.102;11.620;2022-07-29T14:18:25;5.27;;;1.97;;
22388;SDS011;11362;48.102;11.620;2022-07-29T14:20:50;3.83;;;2.07;;
22388;SDS011;11362;48.102;11.620;2022-07-29T14:23:16;6.87;;;2.33;;
22388;SDS011;11362;48.102;11.620;2022-07-29T14:25:42;4.60;;;2.07;;
22388;SDS011;11362;48.102;11.620;2022-07-29T14:28:07;2.27;;;1.80;;
22388;SDS011;11362;48.102;11.620;2022-07-29T14:30:32;5.07;;;2.30;;
22388;SDS011;11362;48.102;11.620;2022-07-29T14:32:58;7.50;;;2.30;;
22388;SDS011;11362;48.102;11.620;2022-07-29T14:35:23;10.30;;;2.27;;
22388;SDS011;11362;48.102;11.620;2022-07-29T14:37:48;3.40;;;1.97;;
22388;SDS011;11362;48.102;11.620;2022-07-29T14:40:14;3.73;;;2.10;;
22388;SDS011;11362;48.102;11.620;2022-07-29T14:42:39;5.50;;;2.53;;
22388;SDS011;11362;48.102;11.620;2022-07-29T14:45:05;2.50;;;2.00;;
22388;SDS011;11362;48.102;11.620;2022-07-29T14:47:32;3.47;;;2.00;;
22388;SDS011;11362;48.102;11.620;2022-07-29T14:49:57;3.47;;;2.07;;
22388;SDS011;11362;48.102;11.620;2022-07-29T14:52:22;3.53;;;1.83;;
22388;SDS011;11362;48.102;11.620;2022-07-29T14:54:48;2.70;;;2.13;;
22388;SDS011;11362;48.102;11.620;2022-07-29T14:57:13;5.47;;;1.83;;
22388;SDS011;11362;48.102;11.620;2022-07-29T14:59:38;2.47;;;1.70;;
22388;SDS011;11362;48.102;11.620;2022-07-29T15:02:04;3.30;;;1.83;;
22388;SDS011;11362;48.102;11.620;2022-07-29T15:04:29;4.40;;;2.03;;
22388;SDS011;11362;48.102;11.620;2022-07-29T15:06:55;3.10;;;2.13;;
22388;SDS011;11362;48.102;11.620;2022-07-29T15:09:20;1.70;;;1.40;;
22388;SDS011;11362;48.102;11.620;2022-07-29T15:11:45;1.70;;;1.60;;
22388;SDS011;11362;48.102;11.620;2022-07-29T15:14:11;4.23;;;2.10;;
22388;SDS011;11362;48.102;11.620;2022-07-29T15:16:36;2.13;;;1.67;;
22388;SDS011;11362;48.102;11.620;2022-07-29T15:19:02;3.07;;;2.00;;
22388;SDS011;11362;48.102;11.620;2022-07-29T15:21:28;6.60;;;2.00;;
22388;SDS011;11362;48.102;11.620;2022-07-29T15:23:53;1.73;;;1.63;;
22388;SDS011;11362;48.102;11.620;2022-07-29T15:26:19;2.43;;;1.87;;